createdAt,value
2018-12-04T00:00:07.673Z,23.40
2018-12-04T00:02:37.086Z,23.60
2018-12-04T00:05:11.290Z,23.60
2018-12-04T00:09:59.589Z,23.60
2018-12-04T00:12:28.766Z,23.80
2018-12-04T00:14:58.017Z,23.80
2018-12-04T00:17:27.336Z,23.70
2018-12-04T00:19:56.538Z,23.50
2018-12-04T00:22:25.744Z,23.40
2018-12-04T00:24:55.441Z,23.50
2018-12-04T00:27:24.670Z,23.30
2018-12-04T00:30:06.594Z,23.40
2018-12-04T00:32:35.764Z,23.40
2018-12-04T00:35:05.311Z,23.50
2018-12-04T00:37:34.523Z,23.60
2018-12-04T00:40:03.839Z,23.60
2018-12-04T00:42:33.196Z,23.50
2018-12-04T00:45:02.447Z,23.40
2018-12-04T00:47:31.742Z,23.40
2018-12-04T00:50:02.096Z,23.40
2018-12-04T00:52:31.304Z,23.30
2018-12-04T00:55:00.629Z,23.30
2018-12-04T00:57:29.811Z,23.10
2018-12-04T00:59:59.046Z,23.00
2018-12-04T01:02:28.280Z,23.00
2018-12-04T01:04:57.577Z,22.90
2018-12-04T01:07:26.822Z,22.80
2018-12-04T01:09:56.058Z,22.80
2018-12-04T01:12:26.710Z,22.90
2018-12-04T01:14:56.276Z,23.00
2018-12-04T01:17:25.468Z,22.80
2018-12-04T01:19:54.741Z,22.90
2018-12-04T01:22:23.980Z,22.80
2018-12-04T01:24:53.325Z,22.90
2018-12-04T01:27:22.684Z,22.90
2018-12-04T01:29:52.958Z,22.80
2018-12-04T01:32:22.512Z,22.70
2018-12-04T01:34:51.963Z,22.80
2018-12-04T01:37:21.357Z,22.80
2018-12-04T01:39:50.636Z,22.80
2018-12-04T01:42:19.889Z,22.70
2018-12-04T01:44:49.402Z,22.60
2018-12-04T01:47:18.675Z,22.60
2018-12-04T01:49:48.375Z,22.80
2018-12-04T01:52:17.714Z,22.60
2018-12-04T01:54:48.632Z,22.60
2018-12-04T01:57:17.951Z,22.60
2018-12-04T01:59:47.163Z,22.80
2018-12-04T02:02:16.370Z,22.70
2018-12-04T02:04:45.611Z,22.80
2018-12-04T02:07:14.868Z,22.70
2018-12-04T02:09:44.098Z,22.60
2018-12-04T02:12:13.343Z,22.60
2018-12-04T02:14:42.552Z,22.60
2018-12-04T02:17:12.065Z,22.80
2018-12-04T02:19:41.248Z,23.00
2018-12-04T02:22:10.466Z,22.90
2018-12-04T02:24:40.230Z,22.70
2018-12-04T02:27:09.760Z,22.70
2018-12-04T02:29:39.306Z,22.70
2018-12-04T02:32:09.080Z,22.70
2018-12-04T02:34:38.286Z,22.70
2018-12-04T02:37:07.462Z,22.50
2018-12-04T02:39:36.959Z,22.50
2018-12-04T02:42:06.149Z,22.30
2018-12-04T02:44:35.374Z,22.20
2018-12-04T02:47:04.606Z,22.20
2018-12-04T02:49:33.985Z,22.20
2018-12-04T02:52:03.163Z,22.30
2018-12-04T02:54:32.465Z,22.20
2018-12-04T02:57:01.671Z,22.20
2018-12-04T02:59:30.932Z,22.10
2018-12-04T03:02:00.372Z,22.10
2018-12-04T03:04:29.817Z,22.10
2018-12-04T03:06:59.050Z,22.20
2018-12-04T03:09:28.980Z,22.20
2018-12-04T03:11:58.209Z,22.20
2018-12-04T03:14:27.481Z,22.20
2018-12-04T03:16:56.828Z,22.20
2018-12-04T03:19:26.124Z,22.20
2018-12-04T03:24:48.399Z,22.30
2018-12-04T03:27:17.952Z,22.30
2018-12-04T03:29:47.213Z,22.10
2018-12-04T03:32:16.443Z,22.20
2018-12-04T03:34:45.655Z,22.20
2018-12-04T03:37:14.897Z,22.10
2018-12-04T03:39:44.108Z,22.10
2018-12-04T03:42:13.444Z,22.10
2018-12-04T03:44:44.649Z,22.00
2018-12-04T03:47:13.894Z,22.00
2018-12-04T03:49:43.120Z,21.90
2018-12-04T03:52:12.351Z,21.90
2018-12-04T03:54:41.602Z,21.80
2018-12-04T03:57:10.808Z,21.80
2018-12-04T03:59:40.054Z,21.80
2018-12-04T04:02:09.309Z,21.80
2018-12-04T04:04:38.495Z,21.80
2018-12-04T04:07:07.990Z,21.70
2018-12-04T04:09:37.252Z,21.60
2018-12-04T04:12:06.438Z,21.60
2018-12-04T04:14:35.648Z,21.60
2018-12-04T04:17:04.917Z,21.60
2018-12-04T04:19:34.151Z,21.60
2018-12-04T04:22:03.339Z,21.60
2018-12-04T04:24:32.512Z,21.50
2018-12-04T04:27:01.883Z,21.40
2018-12-04T04:29:31.617Z,21.50
2018-12-04T04:32:00.853Z,21.50
2018-12-04T04:34:30.058Z,21.60
2018-12-04T04:36:59.295Z,21.50
2018-12-04T04:39:28.505Z,21.40
2018-12-04T04:41:58.526Z,21.40
2018-12-04T04:44:27.680Z,21.30
2018-12-04T04:46:57.008Z,21.30
2018-12-04T04:49:26.181Z,21.20
2018-12-04T04:51:56.260Z,21.20
2018-12-04T04:54:25.485Z,21.20
2018-12-04T04:56:54.783Z,21.30
2018-12-04T04:59:24.090Z,21.20
2018-12-04T05:01:53.471Z,21.30
2018-12-04T05:04:22.751Z,21.30
2018-12-04T05:06:52.018Z,21.30
2018-12-04T05:09:21.233Z,21.20
2018-12-04T05:11:50.424Z,21.20
2018-12-04T05:14:19.961Z,21.20
2018-12-04T05:16:49.206Z,21.20
2018-12-04T05:19:18.437Z,21.20
2018-12-04T05:21:47.625Z,21.30
2018-12-04T05:24:16.831Z,21.30
2018-12-04T05:26:46.064Z,21.20
2018-12-04T05:29:15.389Z,21.20
2018-12-04T05:31:45.203Z,21.30
2018-12-04T05:34:14.609Z,21.30
2018-12-04T05:36:43.904Z,21.20
2018-12-04T05:39:13.116Z,21.30
2018-12-04T05:41:42.406Z,21.20
2018-12-04T05:44:12.530Z,21.20
2018-12-04T05:46:41.752Z,21.20
2018-12-04T05:49:11.083Z,21.20
2018-12-04T05:51:40.304Z,21.20
2018-12-04T05:54:13.880Z,21.20
2018-12-04T05:56:44.298Z,21.20
2018-12-04T05:59:13.551Z,21.20
2018-12-04T06:01:42.753Z,21.10
2018-12-04T06:04:11.980Z,21.10
2018-12-04T06:06:41.198Z,21.10
2018-12-04T06:09:10.460Z,21.10
2018-12-04T06:11:39.710Z,21.10
2018-12-04T06:14:08.976Z,21.10
2018-12-04T06:16:38.181Z,21.00
2018-12-04T06:19:08.006Z,21.00
2018-12-04T06:21:37.187Z,21.00
2018-12-04T06:24:06.494Z,21.00
2018-12-04T06:26:35.716Z,21.00
2018-12-04T06:29:04.970Z,20.90
2018-12-04T06:31:34.283Z,21.00
2018-12-04T06:34:03.917Z,20.90
2018-12-04T06:36:33.076Z,20.90
2018-12-04T06:39:02.295Z,20.90
2018-12-04T06:41:31.490Z,20.80
2018-12-04T06:44:00.694Z,20.90
2018-12-04T06:46:29.912Z,21.10
2018-12-04T06:48:59.176Z,21.20
2018-12-04T06:51:28.527Z,21.20
2018-12-04T06:53:57.719Z,21.30
2018-12-04T06:56:26.916Z,21.30
2018-12-04T06:58:56.275Z,21.30
2018-12-04T07:01:26.290Z,21.40
2018-12-04T07:03:57.347Z,21.50
2018-12-04T07:06:26.581Z,21.50
2018-12-04T07:08:55.766Z,21.50
2018-12-04T07:11:24.939Z,21.50
2018-12-04T07:13:54.177Z,21.60
2018-12-04T07:16:23.374Z,21.60
2018-12-04T07:18:52.576Z,21.60
2018-12-04T07:21:21.944Z,21.70
2018-12-04T07:23:51.165Z,21.70
2018-12-04T07:26:24.252Z,21.70
2018-12-04T07:28:53.465Z,21.90
2018-12-04T07:31:22.773Z,22.00
2018-12-04T07:33:52.535Z,22.00
2018-12-04T07:36:22.390Z,21.90
2018-12-04T07:38:51.593Z,22.00
2018-12-04T07:41:20.871Z,21.90
2018-12-04T07:43:50.072Z,21.90
2018-12-04T07:46:19.379Z,21.90
2018-12-04T07:48:48.775Z,21.90
2018-12-04T07:51:18.075Z,21.90
2018-12-04T07:53:47.308Z,22.00
2018-12-04T07:56:16.609Z,22.00
2018-12-04T07:58:45.963Z,21.90
2018-12-04T08:01:15.237Z,22.00
2018-12-04T08:03:44.460Z,21.90
2018-12-04T08:06:13.824Z,21.90
2018-12-04T08:08:43.110Z,21.80
2018-12-04T08:11:12.315Z,21.80
2018-12-04T08:13:41.562Z,21.70
2018-12-04T08:16:10.819Z,21.70
2018-12-04T08:18:40.058Z,21.70
2018-12-04T08:21:09.321Z,21.60
2018-12-04T08:23:38.552Z,21.60
2018-12-04T08:26:07.789Z,21.60
2018-12-04T08:28:36.996Z,21.70
2018-12-04T08:31:06.448Z,21.70
2018-12-04T08:33:35.668Z,21.70
2018-12-04T08:36:05.000Z,21.60
2018-12-04T08:38:34.995Z,21.60
2018-12-04T08:41:04.212Z,21.60
2018-12-04T08:43:33.411Z,21.60
2018-12-04T08:46:02.680Z,21.60
2018-12-04T08:48:31.904Z,21.70
2018-12-04T08:51:01.187Z,21.60
2018-12-04T08:53:30.397Z,21.60
2018-12-04T08:55:59.637Z,21.50
2018-12-04T08:58:28.834Z,21.40
2018-12-04T09:00:58.057Z,21.30
2018-12-04T09:03:27.260Z,21.20
2018-12-04T09:05:56.519Z,21.20
2018-12-04T09:08:25.748Z,21.10
2018-12-04T09:10:54.958Z,21.10
2018-12-04T09:13:24.230Z,21.10
2018-12-04T09:15:55.083Z,21.00
2018-12-04T09:18:24.347Z,21.10
2018-12-04T09:20:53.615Z,21.10
2018-12-04T09:23:22.914Z,21.10
2018-12-04T09:25:52.186Z,21.10
2018-12-04T09:28:21.469Z,21.10
2018-12-04T09:30:50.800Z,21.10
2018-12-04T09:33:20.062Z,21.20
2018-12-04T09:35:49.289Z,21.40
2018-12-04T09:38:18.764Z,21.30
2018-12-04T09:40:48.389Z,21.20
2018-12-04T09:43:17.626Z,21.20
2018-12-04T09:45:46.840Z,21.20
2018-12-04T09:48:16.147Z,21.20
2018-12-04T09:50:45.417Z,21.20
2018-12-04T09:53:14.645Z,21.20
2018-12-04T09:55:43.844Z,21.30
2018-12-04T09:58:13.087Z,21.30
2018-12-04T10:00:44.310Z,21.30
2018-12-04T10:03:13.544Z,21.40
2018-12-04T10:05:42.785Z,21.30
2018-12-04T10:08:12.004Z,21.30
2018-12-04T10:10:41.266Z,21.30
2018-12-04T10:13:10.506Z,21.10
2018-12-04T10:15:39.706Z,21.00
2018-12-04T10:18:08.919Z,20.90
2018-12-04T10:20:38.150Z,20.80
2018-12-04T10:23:07.684Z,20.70
2018-12-04T10:25:39.121Z,20.70
2018-12-04T10:28:08.325Z,20.70
2018-12-04T10:30:37.512Z,20.60
2018-12-04T10:33:06.745Z,20.50
2018-12-04T10:35:35.970Z,20.40
2018-12-04T10:38:05.229Z,20.40
2018-12-04T10:40:34.499Z,20.40
2018-12-04T10:43:05.111Z,20.30
2018-12-04T10:45:34.345Z,20.30
2018-12-04T10:48:03.579Z,20.30
2018-12-04T10:50:32.821Z,20.30
2018-12-04T10:53:02.068Z,20.30
2018-12-04T10:55:31.290Z,20.40
2018-12-04T10:58:00.496Z,20.30
2018-12-04T11:00:35.166Z,20.30
2018-12-04T11:03:10.029Z,20.00
2018-12-04T11:05:39.252Z,19.90
2018-12-04T11:08:08.479Z,19.80
2018-12-04T11:10:37.697Z,19.60
2018-12-04T11:13:06.900Z,19.50
2018-12-04T11:15:36.162Z,19.40
2018-12-04T11:18:05.478Z,19.40
2018-12-04T11:20:34.728Z,19.50
2018-12-04T11:23:03.964Z,19.40
2018-12-04T11:25:33.325Z,19.50
2018-12-04T11:28:02.548Z,19.50
2018-12-04T11:30:31.752Z,19.50
2018-12-04T11:33:01.565Z,19.70
2018-12-04T11:35:30.786Z,19.80
2018-12-04T11:38:00.015Z,19.90
2018-12-04T11:40:29.255Z,19.90
2018-12-04T11:42:58.456Z,19.90
2018-12-04T11:45:28.068Z,19.80
2018-12-04T11:47:57.307Z,19.90
2018-12-04T11:50:26.559Z,19.90
2018-12-04T11:52:55.793Z,20.00
2018-12-04T11:55:25.072Z,19.90
2018-12-04T11:57:54.331Z,20.00
2018-12-04T12:00:24.640Z,19.80
2018-12-04T12:02:53.985Z,19.80
2018-12-04T12:05:23.228Z,19.80
2018-12-04T12:07:52.478Z,19.80
2018-12-04T12:10:21.700Z,19.80
2018-12-04T12:12:50.954Z,19.80
2018-12-04T12:15:20.193Z,19.80
2018-12-04T12:17:49.430Z,19.70
2018-12-04T12:20:19.542Z,19.60
2018-12-04T12:22:48.922Z,19.60
2018-12-04T12:25:18.134Z,19.50
2018-12-04T12:27:47.358Z,19.50
2018-12-04T12:30:17.121Z,19.50
2018-12-04T12:32:46.958Z,19.50
2018-12-04T12:35:16.180Z,19.50
2018-12-04T12:37:45.394Z,19.50
2018-12-04T12:40:14.609Z,19.50
2018-12-04T12:42:43.840Z,19.50
2018-12-04T12:45:13.063Z,19.50
2018-12-04T12:47:42.552Z,19.40
2018-12-04T12:50:11.870Z,19.40
2018-12-04T12:52:41.286Z,19.40
2018-12-04T12:55:10.505Z,19.50
2018-12-04T12:57:40.346Z,19.60
2018-12-04T13:00:10.374Z,19.50
2018-12-04T13:02:41.525Z,19.60
2018-12-04T13:05:11.010Z,19.80
2018-12-04T13:07:40.223Z,20.30
2018-12-04T13:10:09.912Z,20.70
2018-12-04T13:12:40.761Z,21.00
2018-12-04T13:15:10.021Z,21.40
2018-12-04T13:17:39.290Z,21.70
2018-12-04T13:20:08.619Z,21.90
2018-12-04T13:22:37.889Z,21.80
2018-12-04T13:25:07.356Z,21.70
2018-12-04T13:27:36.564Z,21.90
2018-12-04T13:30:07.099Z,21.90
2018-12-04T13:32:36.399Z,21.90
2018-12-04T13:35:05.930Z,21.90
2018-12-04T13:37:35.212Z,21.90
2018-12-04T13:40:08.645Z,22.00
2018-12-04T13:42:36.509Z,22.00
2018-12-04T13:45:06.708Z,22.00
2018-12-04T13:47:36.008Z,22.00
2018-12-04T13:50:06.079Z,22.20
2018-12-04T13:52:35.300Z,22.50
2018-12-04T13:55:04.998Z,22.30
2018-12-04T13:57:34.292Z,22.50
2018-12-04T14:00:03.809Z,22.70
2018-12-04T14:02:33.035Z,22.80
2018-12-04T14:05:07.892Z,23.00
2018-12-04T14:07:34.137Z,23.10
2018-12-04T14:10:03.449Z,23.20
2018-12-04T14:12:32.729Z,23.00
2018-12-04T14:15:04.653Z,22.90
2018-12-04T14:17:34.466Z,23.00
2018-12-04T14:20:03.898Z,23.00
2018-12-04T14:22:33.132Z,23.20
2018-12-04T14:25:02.905Z,23.30
2018-12-04T14:27:32.415Z,23.50
2018-12-04T14:30:01.846Z,23.60
2018-12-04T14:32:31.085Z,23.50
2018-12-04T14:35:00.327Z,23.40
2018-12-04T14:37:30.362Z,23.40
2018-12-04T14:39:59.612Z,23.60
2018-12-04T14:42:29.164Z,23.80
2018-12-04T14:44:58.448Z,24.20
2018-12-04T14:47:27.691Z,24.60
2018-12-04T14:49:58.103Z,25.20
2018-12-04T14:52:27.917Z,25.90
2018-12-04T14:54:57.318Z,26.60
2018-12-04T14:57:26.646Z,27.10
2018-12-04T14:59:56.670Z,27.60
2018-12-04T15:02:26.047Z,27.80
2018-12-04T15:04:55.319Z,27.10
2018-12-04T15:07:24.661Z,27.20
2018-12-04T15:09:53.893Z,26.90
2018-12-04T15:12:23.209Z,27.10
2018-12-04T15:14:52.497Z,27.20
2018-12-04T15:17:21.798Z,27.70
2018-12-04T15:19:52.686Z,28.20
2018-12-04T15:22:22.050Z,28.70
2018-12-04T15:24:51.291Z,29.20
2018-12-04T15:27:20.608Z,28.30
2018-12-04T15:29:50.065Z,28.90
2018-12-04T15:32:19.395Z,28.90
2018-12-04T15:34:48.647Z,28.90
2018-12-04T15:37:19.024Z,29.00
2018-12-04T15:39:49.438Z,28.60
2018-12-04T15:42:19.780Z,28.50
2018-12-04T15:44:49.140Z,29.00
2018-12-04T15:47:18.580Z,29.80
2018-12-04T15:49:48.282Z,30.20
2018-12-04T15:52:17.631Z,30.50
2018-12-04T15:54:47.549Z,30.70
2018-12-04T15:57:17.098Z,30.80
2018-12-04T15:59:46.501Z,30.80
2018-12-04T16:02:16.091Z,31.30
2018-12-04T16:04:45.416Z,31.60
2018-12-04T16:07:14.708Z,31.50
2018-12-04T16:09:44.101Z,30.80
2018-12-04T16:12:13.486Z,30.70
2018-12-04T16:14:42.818Z,30.20
2018-12-04T16:17:15.212Z,30.40
2018-12-04T16:19:43.537Z,30.60
2018-12-04T16:22:13.168Z,30.30
2018-12-04T16:24:44.439Z,30.80
2018-12-04T16:27:13.988Z,31.10
2018-12-04T16:29:43.426Z,31.40
2018-12-04T16:32:13.259Z,31.60
2018-12-04T16:34:42.766Z,32.20
2018-12-04T16:37:12.160Z,32.00
2018-12-04T16:39:41.458Z,32.00
2018-12-04T16:42:10.770Z,32.00
2018-12-04T16:44:42.214Z,32.40
2018-12-04T16:47:11.974Z,33.10
2018-12-04T16:49:41.287Z,33.10
2018-12-04T16:52:10.698Z,33.20
2018-12-04T16:54:39.944Z,33.00
2018-12-04T16:57:09.433Z,32.30
2018-12-04T16:59:38.752Z,32.30
2018-12-04T17:02:08.173Z,32.80
2018-12-04T17:04:37.586Z,33.10
2018-12-04T17:07:07.966Z,33.40
2018-12-04T17:09:37.218Z,33.40
2018-12-04T17:12:06.622Z,32.70
2018-12-04T17:14:36.075Z,32.80
2018-12-04T17:17:05.312Z,33.00
2018-12-04T17:19:35.776Z,32.60
2018-12-04T17:22:05.169Z,32.50
2018-12-04T17:24:34.413Z,32.30
2018-12-04T17:27:06.240Z,32.10
2018-12-04T17:29:35.572Z,32.50
2018-12-04T17:32:04.899Z,33.10
2018-12-04T17:34:34.967Z,33.90
2018-12-04T17:37:04.533Z,33.60
2018-12-04T17:39:33.895Z,33.90
2018-12-04T17:42:03.349Z,34.20
2018-12-04T17:44:39.849Z,34.60
2018-12-04T17:47:04.831Z,34.50
2018-12-04T17:49:35.134Z,33.60
2018-12-04T17:52:04.653Z,32.50
2018-12-04T17:54:33.864Z,31.60
2018-12-04T17:57:03.287Z,31.20
2018-12-04T17:59:33.490Z,31.50
2018-12-04T18:02:02.925Z,31.90
2018-12-04T18:04:32.244Z,31.90
2018-12-04T18:07:01.789Z,31.60
2018-12-04T18:09:31.091Z,31.30
2018-12-04T18:12:00.363Z,31.20
2018-12-04T18:14:29.750Z,31.40
2018-12-04T18:16:59.114Z,31.70
2018-12-04T18:19:28.522Z,32.30
2018-12-04T18:21:57.991Z,32.70
2018-12-04T18:24:27.777Z,32.60
2018-12-04T18:26:57.019Z,32.80
2018-12-04T18:29:26.588Z,32.40
2018-12-04T18:31:55.905Z,32.30
2018-12-04T18:34:25.390Z,32.80
2018-12-04T18:36:54.726Z,32.30
2018-12-04T18:39:24.022Z,31.90
2018-12-04T18:41:53.352Z,32.30
2018-12-04T18:44:22.939Z,32.80
2018-12-04T18:46:52.331Z,32.50
2018-12-04T18:49:21.690Z,32.00
2018-12-04T18:51:54.781Z,31.80
2018-12-04T18:54:24.068Z,31.60
2018-12-04T18:56:54.845Z,32.10
2018-12-04T18:59:24.078Z,31.40
2018-12-04T19:01:53.629Z,32.00
2018-12-04T19:04:22.854Z,32.50
2018-12-04T19:06:53.259Z,33.10
2018-12-04T19:09:22.494Z,33.00
2018-12-04T19:11:51.768Z,32.70
2018-12-04T19:14:20.996Z,32.30
2018-12-04T19:16:50.197Z,32.50
2018-12-04T19:19:19.374Z,32.30
2018-12-04T19:21:48.637Z,32.40
2018-12-04T19:24:17.929Z,31.40
2018-12-04T19:26:47.155Z,31.90
2018-12-04T19:29:16.658Z,32.60
2018-12-04T19:31:46.141Z,31.90
2018-12-04T19:34:15.616Z,31.60
2018-12-04T19:36:44.903Z,31.70
2018-12-04T19:39:14.261Z,31.30
2018-12-04T19:41:43.463Z,31.30
2018-12-04T19:44:12.922Z,31.40
2018-12-04T19:46:42.152Z,31.60
2018-12-04T19:49:11.416Z,31.80
2018-12-04T19:51:40.830Z,31.20
2018-12-04T19:54:10.656Z,32.10
2018-12-04T19:56:40.210Z,31.40
2018-12-04T19:59:10.667Z,31.40
2018-12-04T20:01:40.137Z,31.90
2018-12-04T20:04:09.635Z,32.60
2018-12-04T20:06:38.833Z,32.90
2018-12-04T20:09:08.532Z,32.60
2018-12-04T20:11:37.845Z,31.80
2018-12-04T20:14:07.177Z,31.40
2018-12-04T20:16:36.654Z,31.40
2018-12-04T20:19:06.016Z,31.20
2018-12-04T20:21:35.616Z,31.20
2018-12-04T20:24:04.939Z,31.80
2018-12-04T20:26:34.288Z,32.10
2018-12-04T20:29:04.279Z,31.50
2018-12-04T20:31:33.925Z,32.00
2018-12-04T20:34:03.256Z,32.10
2018-12-04T20:36:33.842Z,31.90
2018-12-04T20:39:09.234Z,32.00
2018-12-04T20:41:40.607Z,31.50
2018-12-04T20:44:10.002Z,31.70
2018-12-04T20:46:40.129Z,32.00
2018-12-04T20:49:09.608Z,32.20
2018-12-04T20:51:38.918Z,32.00
2018-12-04T20:54:08.474Z,31.70
2018-12-04T20:56:37.922Z,31.40
2018-12-04T20:59:07.358Z,31.00
2018-12-04T21:01:36.770Z,30.90
2018-12-04T21:04:06.110Z,30.50
2018-12-04T21:06:35.298Z,30.60
2018-12-04T21:09:06.772Z,30.80
2018-12-04T21:11:36.068Z,30.70
2018-12-04T21:14:05.392Z,30.80
2018-12-04T21:16:34.662Z,30.40
2018-12-04T21:19:03.866Z,30.00
2018-12-04T21:21:33.195Z,30.30
2018-12-04T21:24:02.405Z,30.20
2018-12-04T21:26:36.754Z,30.10
2018-12-04T21:29:08.725Z,30.40
2018-12-04T21:31:43.430Z,30.10
2018-12-04T21:37:25.303Z,29.70
2018-12-04T21:39:59.801Z,29.40
2018-12-04T21:42:35.102Z,29.20
2018-12-04T21:45:09.927Z,29.10
2018-12-04T21:47:44.503Z,28.70
2018-12-04T21:50:13.797Z,28.60
2018-12-04T21:52:44.065Z,28.60
2018-12-04T21:55:13.582Z,28.40
2018-12-04T21:57:42.966Z,27.90
2018-12-04T22:00:12.230Z,28.00
2018-12-04T22:02:41.469Z,27.90
2018-12-04T22:05:11.173Z,27.90
2018-12-04T22:07:40.427Z,27.50
2018-12-04T22:10:09.763Z,27.50
2018-12-04T22:12:39.059Z,27.60
2018-12-04T22:15:08.551Z,27.60
2018-12-04T22:17:39.052Z,27.80
2018-12-04T22:20:08.353Z,27.60
2018-12-04T22:22:37.660Z,27.50
2018-12-04T22:25:06.994Z,27.50
2018-12-04T22:27:36.184Z,27.60
2018-12-04T22:30:07.730Z,27.70
2018-12-04T22:32:37.185Z,27.60
2018-12-04T22:35:06.427Z,27.70
2018-12-04T22:37:37.336Z,27.60
2018-12-04T22:40:07.388Z,27.40
2018-12-04T22:42:36.966Z,27.30
2018-12-04T22:45:12.041Z,27.30
2018-12-04T22:47:41.518Z,27.10
2018-12-04T22:50:10.963Z,26.80
2018-12-04T22:52:40.223Z,26.40
2018-12-04T22:55:09.518Z,26.30
2018-12-04T22:57:39.607Z,26.30
2018-12-04T23:00:25.733Z,26.30
2018-12-04T23:02:55.446Z,26.20
2018-12-04T23:05:25.410Z,26.20
2018-12-04T23:07:54.813Z,26.20
2018-12-04T23:10:24.128Z,25.80
2018-12-04T23:12:53.360Z,25.50
2018-12-04T23:15:22.748Z,25.40
2018-12-04T23:17:52.071Z,25.30
2018-12-04T23:20:21.487Z,25.40
2018-12-04T23:22:50.728Z,25.40
2018-12-04T23:25:20.007Z,25.30
2018-12-04T23:27:49.283Z,25.30
2018-12-04T23:30:18.601Z,25.20
2018-12-04T23:32:47.836Z,25.10
2018-12-04T23:35:17.818Z,25.20
2018-12-04T23:37:47.207Z,25.10
2018-12-04T23:40:16.613Z,25.20
2018-12-04T23:42:45.976Z,25.10
2018-12-04T23:45:15.251Z,24.90
2018-12-04T23:47:44.550Z,24.90
2018-12-04T23:50:13.974Z,24.90
2018-12-04T23:52:43.474Z,24.80
2018-12-04T23:55:12.947Z,24.70
2018-12-04T23:57:42.112Z,24.90
